createdAt,value
2018-07-23T05:54:20.302Z,27.35
2018-07-23T05:56:51.538Z,25.00
2018-07-23T05:59:33.864Z,24.57
2018-07-23T06:02:16.772Z,25.02
2018-07-23T06:05:03.296Z,24.18
2018-07-23T06:07:38.525Z,23.77
2018-07-23T06:10:10.099Z,23.80
2018-07-23T06:12:42.907Z,23.40
2018-07-23T06:15:15.528Z,22.42
2018-07-23T06:17:46.535Z,22.87
2018-07-23T06:20:19.719Z,22.02
2018-07-23T06:22:54.108Z,21.73
2018-07-23T06:25:24.820Z,21.80
2018-07-23T06:27:56.309Z,20.82
2018-07-23T06:30:27.434Z,21.30
2018-07-23T06:32:58.058Z,22.40
2018-07-23T06:35:34.205Z,21.00
2018-07-23T06:38:07.454Z,20.75
2018-07-23T06:40:41.367Z,20.75
2018-07-23T06:43:11.927Z,20.48
2018-07-23T06:45:54.210Z,19.80
2018-07-23T06:48:29.001Z,17.82
2018-07-23T06:50:58.208Z,18.98
2018-07-23T06:53:33.616Z,17.95
2018-07-23T06:56:06.158Z,18.02
2018-07-23T06:58:45.508Z,18.02
2018-07-23T07:01:26.033Z,18.00
2018-07-23T07:04:07.712Z,19.00
2018-07-23T07:06:46.400Z,16.97
2018-07-23T07:09:16.983Z,17.30
2018-07-23T07:11:46.848Z,18.45
2018-07-23T07:14:15.616Z,17.05
2018-07-23T07:16:44.790Z,17.90
2018-07-23T07:19:15.832Z,16.57
2018-07-23T07:21:45.769Z,18.48
2018-07-23T07:24:14.442Z,17.85
2018-07-23T07:26:45.639Z,18.12
2018-07-23T07:29:16.090Z,17.98
2018-07-23T07:31:46.171Z,17.42
2018-07-23T07:34:15.612Z,16.70
2018-07-23T07:36:44.458Z,17.35
2018-07-23T07:39:15.051Z,16.70
2018-07-23T07:41:45.418Z,15.93
2018-07-23T07:44:14.794Z,15.25
2018-07-23T07:46:43.645Z,15.70
2018-07-23T07:49:13.804Z,15.68
2018-07-23T07:51:43.236Z,16.55
2018-07-23T07:54:12.596Z,17.02
2018-07-23T07:56:47.132Z,16.05
2018-07-23T07:59:15.925Z,17.00
2018-07-23T08:01:46.222Z,14.68
2018-07-23T08:04:14.977Z,14.60
2018-07-23T08:06:44.468Z,12.82
2018-07-23T08:09:14.178Z,12.93
2018-07-23T08:11:43.949Z,13.60
2018-07-23T08:14:13.604Z,12.47
2018-07-23T08:16:43.835Z,13.35
2018-07-23T08:19:13.278Z,12.65
2018-07-23T08:21:42.166Z,12.18
2018-07-23T08:24:11.345Z,11.48
2018-07-23T08:26:42.138Z,12.90
2018-07-23T08:29:10.939Z,11.28
2018-07-23T08:31:40.485Z,10.28
2018-07-23T08:34:10.736Z,11.10
2018-07-23T08:36:40.234Z,10.32
2018-07-23T08:39:10.646Z,10.32
2018-07-23T08:41:40.275Z,9.00
2018-07-23T08:44:09.754Z,8.93
2018-07-23T08:46:38.341Z,9.63
2018-07-23T08:49:06.953Z,9.98
2018-07-23T08:51:35.475Z,9.83
2018-07-23T08:54:03.995Z,9.10
2018-07-23T08:56:32.522Z,8.98
2018-07-23T08:59:01.191Z,9.68
2018-07-23T09:01:29.688Z,9.25
2018-07-23T09:03:59.561Z,7.30
2018-07-23T09:06:28.062Z,7.55
2018-07-23T09:08:56.718Z,8.05
2018-07-23T09:11:25.908Z,8.73
2018-07-23T09:13:54.514Z,9.03
2018-07-23T09:16:23.017Z,8.15
2018-07-23T09:18:51.688Z,6.67
2018-07-23T09:21:20.205Z,5.45
2018-07-23T09:23:48.690Z,6.17
2018-07-23T09:26:17.340Z,6.20
2018-07-23T09:28:45.853Z,5.72
2018-07-23T09:31:14.454Z,4.62
2018-07-23T09:33:42.975Z,4.87
2018-07-23T09:36:11.582Z,4.60
2018-07-23T09:38:40.205Z,5.12
2018-07-23T09:41:09.267Z,4.90
2018-07-23T09:43:37.773Z,4.53
2018-07-23T09:46:07.312Z,4.15
2018-07-23T09:48:36.459Z,4.78
2018-07-23T09:51:04.993Z,4.30
2018-07-23T09:53:33.510Z,5.87
2018-07-23T09:56:02.008Z,5.45
2018-07-23T09:58:30.713Z,5.75
2018-07-23T10:01:04.470Z,4.40
2018-07-23T10:03:33.172Z,4.83
2018-07-23T10:06:01.614Z,6.25
2018-07-23T10:08:30.227Z,5.33
2018-07-23T10:10:58.849Z,4.62
2018-07-23T10:13:27.415Z,5.35
2018-07-23T10:15:55.961Z,4.15
2018-07-23T10:18:24.664Z,4.55
2018-07-23T10:20:53.157Z,3.83
2018-07-23T10:23:21.674Z,3.42
2018-07-23T10:25:50.463Z,3.37
2018-07-23T10:28:19.097Z,4.17
2018-07-23T10:30:47.634Z,4.10
2018-07-23T10:33:16.218Z,4.53
2018-07-23T10:35:44.952Z,3.65
2018-07-23T10:38:15.196Z,3.55
2018-07-23T10:40:45.114Z,3.80
2018-07-23T10:43:13.799Z,4.22
2018-07-23T10:45:43.688Z,3.80
2018-07-23T10:48:16.821Z,4.70
2018-07-23T10:50:46.114Z,4.95
2018-07-23T10:53:14.718Z,4.80
2018-07-23T10:55:43.317Z,4.25
2018-07-23T10:58:11.849Z,3.70
2018-07-23T11:00:40.368Z,3.65
2018-07-23T11:03:08.867Z,4.70
2018-07-23T11:05:37.412Z,5.00
2018-07-23T11:08:06.046Z,4.42
2018-07-23T11:10:34.245Z,4.75
2018-07-23T11:13:02.934Z,4.85
2018-07-23T11:15:31.448Z,4.80
2018-07-23T11:18:00.022Z,4.40
2018-07-23T11:20:28.592Z,4.35
2018-07-23T11:23:00.611Z,3.95
2018-07-23T11:25:41.037Z,3.62
2018-07-23T11:28:01.254Z,4.35
2018-07-23T11:30:29.758Z,4.10
2018-07-23T11:32:58.396Z,4.53
2018-07-23T11:35:26.892Z,5.22
2018-07-23T11:37:57.284Z,4.55
2018-07-23T11:40:26.490Z,4.75
2018-07-23T11:42:55.734Z,4.10
2018-07-23T11:45:24.253Z,3.77
2018-07-23T11:47:52.838Z,4.25
2018-07-23T11:50:21.453Z,4.42
2018-07-23T11:52:50.030Z,4.20
2018-07-23T11:55:18.574Z,3.85
2018-07-23T11:57:47.158Z,4.00
2018-07-23T12:00:15.686Z,3.95
2018-07-23T12:02:44.220Z,4.03
2018-07-23T12:05:12.717Z,4.08
2018-07-23T12:07:41.864Z,3.95
2018-07-23T12:10:10.394Z,4.03
2018-07-23T12:15:12.871Z,4.03
2018-07-23T12:17:41.494Z,3.87
2018-07-23T12:20:10.215Z,4.50
2018-07-23T12:22:38.765Z,3.95
2018-07-23T12:25:07.313Z,3.40
2018-07-23T12:27:35.838Z,3.70
2018-07-23T12:30:04.580Z,4.10
2018-07-23T12:32:33.258Z,3.60
2018-07-23T12:35:01.639Z,4.00
2018-07-23T12:37:30.187Z,3.95
2018-07-23T12:39:58.699Z,3.47
2018-07-23T12:42:27.226Z,3.70
2018-07-23T12:44:55.737Z,4.10
2018-07-23T12:47:25.104Z,5.28
2018-07-23T12:49:53.617Z,5.22
2018-07-23T12:52:22.186Z,3.85
2018-07-23T12:54:50.719Z,4.00
2018-07-23T12:57:19.287Z,4.05
2018-07-23T12:59:47.805Z,4.03
2018-07-23T13:02:16.320Z,4.83
2018-07-23T13:04:44.838Z,3.60
2018-07-23T13:07:13.491Z,3.72
2018-07-23T13:09:42.857Z,4.00
2018-07-23T13:12:11.432Z,3.55
2018-07-23T13:14:39.912Z,3.52
2018-07-23T13:17:09.157Z,4.03
2018-07-23T13:19:37.695Z,3.40
2018-07-23T13:22:06.197Z,3.05
2018-07-23T13:24:34.718Z,3.37
2018-07-23T13:27:03.835Z,3.50
2018-07-23T13:29:32.361Z,3.47
2018-07-23T13:32:01.167Z,3.42
2018-07-23T13:34:29.712Z,3.50
2018-07-23T13:39:14.337Z,3.52
2018-07-23T13:44:24.871Z,3.60
2018-07-23T13:46:53.379Z,3.65
2018-07-23T13:49:21.922Z,3.40
2018-07-23T13:51:50.413Z,3.58
2018-07-23T13:54:18.943Z,3.58
2018-07-23T13:56:47.470Z,3.67
2018-07-23T13:59:16.083Z,4.00
2018-07-23T14:01:44.616Z,4.70
2018-07-23T14:04:13.170Z,6.28
2018-07-23T14:06:42.190Z,8.80
2018-07-23T14:09:12.026Z,12.88
2018-07-23T14:11:41.542Z,17.55
2018-07-23T14:14:10.118Z,31.70
2018-07-23T14:16:38.617Z,48.68
2018-07-23T14:19:07.223Z,73.25
2018-07-23T14:21:35.875Z,103.20
2018-07-23T14:24:04.319Z,134.25
2018-07-23T14:26:33.345Z,167.95
2018-07-23T14:29:01.963Z,205.92
2018-07-23T14:31:30.466Z,239.95
2018-07-23T14:33:58.985Z,270.23
2018-07-23T14:36:27.518Z,294.52
2018-07-23T14:38:56.100Z,313.05
2018-07-23T14:41:24.663Z,328.83
2018-07-23T14:43:53.186Z,334.37
2018-07-23T14:46:21.766Z,337.98
2018-07-23T14:48:50.285Z,334.75
2018-07-23T14:51:19.350Z,339.57
2018-07-23T14:53:47.857Z,342.27
2018-07-23T14:56:16.728Z,339.50
2018-07-23T14:58:45.230Z,336.52
2018-07-23T15:01:13.708Z,344.37
2018-07-23T15:03:42.996Z,341.42
2018-07-23T15:06:13.915Z,281.05
2018-07-23T15:08:42.438Z,111.70
2018-07-23T15:11:10.912Z,55.30
2018-07-23T15:13:39.458Z,69.15
2018-07-23T15:16:08.001Z,85.40
2018-07-23T15:18:36.605Z,98.35
2018-07-23T15:21:05.543Z,107.40
2018-07-23T15:23:34.683Z,115.57
2018-07-23T15:26:03.309Z,127.50
2018-07-23T15:28:33.237Z,133.93
2018-07-23T15:31:01.811Z,138.88
2018-07-23T15:33:31.131Z,136.32
2018-07-23T15:36:00.310Z,135.43
2018-07-23T15:38:29.146Z,139.07
2018-07-23T15:40:57.907Z,146.47
2018-07-23T15:43:27.205Z,148.72
2018-07-23T15:45:56.287Z,99.42
2018-07-23T15:48:25.008Z,53.58
2018-07-23T15:50:53.868Z,38.78
2018-07-23T15:53:22.623Z,36.75
2018-07-23T15:55:51.345Z,14.45
2018-07-23T15:58:19.979Z,10.10
2018-07-23T16:00:48.782Z,14.35
2018-07-23T16:03:18.394Z,22.60
2018-07-23T16:05:47.023Z,29.57
2018-07-23T16:08:16.428Z,37.35
2018-07-23T16:10:45.055Z,45.28
2018-07-23T16:13:13.722Z,53.70
2018-07-23T16:15:42.303Z,59.70
2018-07-23T16:18:11.821Z,63.68
2018-07-23T16:20:40.437Z,65.00
2018-07-23T16:23:09.030Z,68.57
2018-07-23T16:25:37.607Z,70.35
2018-07-23T16:28:06.365Z,68.07
2018-07-23T16:30:34.972Z,68.15
2018-07-23T16:33:04.530Z,67.00
2018-07-23T16:35:36.512Z,66.22
2018-07-23T16:38:05.228Z,58.28
2018-07-23T16:40:33.876Z,52.03
2018-07-23T16:43:07.933Z,44.38
2018-07-23T16:45:37.446Z,40.55
2018-07-23T16:48:07.565Z,34.55
2018-07-23T16:50:36.132Z,33.67
2018-07-23T16:53:04.699Z,32.53
2018-07-23T16:55:33.623Z,31.37
2018-07-23T16:58:03.230Z,28.20
2018-07-23T17:00:35.844Z,19.90
2018-07-23T17:03:05.777Z,9.93
2018-07-23T17:05:34.613Z,4.60
2018-07-23T17:08:03.281Z,5.03
2018-07-23T17:10:32.062Z,4.75
2018-07-23T17:13:01.222Z,4.00
2018-07-23T17:15:30.097Z,3.52
2018-07-23T17:17:58.749Z,3.77
2018-07-23T17:20:27.313Z,3.33
2018-07-23T17:22:55.879Z,3.25
2018-07-23T17:25:24.059Z,3.55
2018-07-23T17:27:53.495Z,2.90
2018-07-23T17:30:22.656Z,3.35
2018-07-23T17:32:52.329Z,3.12
2018-07-23T17:35:20.833Z,3.22
2018-07-23T17:37:50.165Z,2.80
2018-07-23T17:40:18.761Z,3.10
2018-07-23T17:42:47.351Z,3.02
2018-07-23T17:45:15.975Z,3.10
2018-07-23T17:47:44.828Z,3.10
2018-07-23T17:50:13.462Z,3.10
2018-07-23T17:52:42.036Z,2.98
2018-07-23T17:55:10.642Z,3.20
2018-07-23T17:57:39.174Z,2.77
2018-07-23T18:00:07.841Z,3.08
2018-07-23T18:02:39.207Z,2.90
2018-07-23T18:05:07.934Z,3.47
2018-07-23T18:07:36.478Z,3.58
2018-07-23T18:10:05.124Z,2.98
2018-07-23T18:12:34.344Z,3.40
2018-07-23T18:15:04.214Z,3.30
2018-07-23T18:17:32.807Z,3.08
2018-07-23T18:20:03.057Z,3.37
2018-07-23T18:22:32.205Z,3.00
2018-07-23T18:25:01.439Z,3.33
2018-07-23T18:27:29.915Z,58.83
2018-07-23T18:29:58.469Z,51.92
2018-07-23T18:32:27.061Z,47.48
2018-07-23T18:34:55.619Z,43.70
2018-07-23T18:37:24.305Z,56.25
2018-07-23T18:39:52.869Z,43.42
2018-07-23T18:42:22.473Z,43.87
2018-07-23T18:44:51.023Z,47.13
2018-07-23T18:47:19.566Z,32.25
2018-07-23T18:49:54.812Z,45.48
2018-07-23T18:52:25.585Z,37.67
2018-07-23T18:54:55.788Z,38.80
2018-07-23T18:57:25.894Z,28.40
2018-07-23T18:59:56.364Z,47.75
2018-07-23T19:02:24.923Z,4.22
2018-07-23T19:04:53.457Z,3.55
2018-07-23T19:07:22.080Z,5.42
2018-07-23T19:09:51.701Z,33.58
2018-07-23T19:12:22.739Z,4.97
2018-07-23T19:14:51.269Z,4.33
2018-07-23T19:17:19.857Z,7.35
2018-07-23T19:19:49.307Z,4.42
2018-07-23T19:22:18.727Z,3.52
2018-07-23T19:24:50.164Z,21.65
2018-07-23T19:27:18.848Z,5.80
2018-07-23T19:29:48.112Z,14.73
2018-07-23T19:32:18.291Z,14.65
2018-07-23T19:34:47.003Z,4.62
2018-07-23T19:37:17.695Z,10.32
2018-07-23T19:39:47.361Z,5.10
2018-07-23T19:44:51.749Z,4.72
2018-07-23T19:47:21.152Z,5.10
2018-07-23T19:49:50.410Z,6.75
2018-07-23T19:52:20.837Z,5.12
2018-07-23T19:54:49.902Z,5.62
2018-07-23T19:57:20.101Z,8.70
2018-07-23T19:59:48.600Z,5.28
2018-07-23T20:02:18.183Z,6.12
2018-07-23T20:04:47.486Z,13.22
2018-07-23T20:07:16.429Z,8.75
2018-07-23T20:09:44.984Z,9.60
2018-07-23T20:12:13.601Z,5.72
2018-07-23T20:14:42.130Z,9.00
2018-07-23T20:17:11.301Z,8.30
2018-07-23T20:19:40.692Z,7.10
2018-07-23T20:22:10.172Z,6.80
2018-07-23T20:24:38.699Z,6.62
2018-07-23T20:27:07.887Z,7.60
2018-07-23T20:29:36.508Z,7.33
2018-07-23T20:32:05.053Z,6.62
2018-07-23T20:34:34.418Z,7.08
2018-07-23T20:37:04.082Z,6.55
2018-07-23T20:39:33.828Z,7.15
2018-07-23T20:42:02.612Z,7.10
2018-07-23T20:44:31.215Z,8.83
2018-07-23T20:47:00.640Z,6.05
2018-07-23T20:49:30.108Z,6.50
2018-07-23T20:51:58.641Z,7.78
2018-07-23T20:54:27.119Z,8.45
2018-07-23T20:56:55.618Z,8.50
2018-07-23T20:59:24.227Z,8.25
2018-07-23T21:01:52.758Z,10.13
2018-07-23T21:04:21.310Z,8.70
2018-07-23T21:06:49.902Z,8.43
2018-07-23T21:09:18.454Z,7.75
2018-07-23T21:11:46.934Z,7.75
2018-07-23T21:14:15.510Z,7.45
2018-07-23T21:16:44.912Z,7.65
2018-07-23T21:19:13.514Z,7.85
2018-07-23T21:21:42.057Z,6.78
2018-07-23T21:24:10.553Z,6.22
2018-07-23T21:26:38.705Z,7.22
2018-07-23T21:29:07.338Z,7.12
2018-07-23T21:31:35.821Z,8.25
2018-07-23T21:34:04.328Z,7.65
2018-07-23T21:36:32.822Z,7.20
